Time;durP1;ratioP1;P1;durP2;ratioP2;P2;SDS_P1;SDS_P2;PMS_P1;PMS_P2;Temp;Humidity;BMP_temperature;BMP_pressure;BME280_temperature;BME280_humidity;BME280_pressure;Samples;Min_cycle;Max_cycle;Signal;HPM_P1;HPM_P2
2023/06/17 00:00:54;;;;;;;;;;;;;;;;;;5049349;28;19917;-80
2023/06/17 00:03:19;;;;;;;;;;;;;;;;;;5054419;28;19916;-81
2023/06/17 00:05:45;;;;;;;;;;;;;;;;;;5053391;28;19982;-81
2023/06/17 00:08:10;;;;;;;;;;;;;;;;;;5053974;28;19909;-80
2023/06/17 00:10:35;;;;;;;;;;;;;;;;;;5053628;28;19940;-80
2023/06/17 00:13:01;;;;;;;;;;;;;;;;;;5053027;28;20426;-80
2023/06/17 00:15:28;;;;;;;;;;;;;;;;;;5052687;28;19912;-80
2023/06/17 00:17:55;;;;;;;;;;;;;;;;;;5061120;28;19918;-80
2023/06/17 00:20:23;;;;;;;;;;;;;;;;;;5051066;28;19920;-81
2023/06/17 00:22:48;;;;;;;;;;;;;;;;;;5056339;28;20390;-80
2023/06/17 00:25:13;;;;;;;;;;;;;;;;;;5055877;28;19951;-80
2023/06/17 00:27:39;;;;;;;;;;;;;;;;;;5057438;28;19974;-80
2023/06/17 00:30:04;;;;;;;;;;;;;;;;;;5054481;28;19920;-80
2023/06/17 00:32:30;;;;;;;;;;;;;;;;;;5053311;28;19908;-80
2023/06/17 00:34:56;;;;;;;;;;;;;;;;;;5054735;28;20003;-80
2023/06/17 00:37:21;;;;;;;;;;;;;;;;;;5050375;28;19943;-80
2023/06/17 00:39:46;;;;;;;;;;;;;;;;;;5051538;28;19912;-80
2023/06/17 00:42:11;;;;;;;;;;;;;;;;;;5052534;28;19951;-80
2023/06/17 00:44:39;;;;;;;;;;;;;;;;;;5052733;28;19912;-80
2023/06/17 00:47:04;;;;;;;;;;;;;;;;;;5052760;28;19943;-80
2023/06/17 00:49:30;;;;;;;;;;;;;;;;;;5054349;28;19916;-80
2023/06/17 00:51:55;;;;;;;;;;;;;;;;;;5055980;28;19912;-80
2023/06/17 00:54:20;;;;;;;;;;;;;;;;;;5055594;28;20007;-80
2023/06/17 00:56:45;;;;;;;;;;;;;;;;;;5070461;28;19909;-80
2023/06/17 00:59:11;;;;;;;;;;;;;;;;;;5070314;28;20414;-80
2023/06/17 01:01:36;;;;;;;;;;;;;;;;;;5054882;28;19908;-80
2023/06/17 01:04:04;;;;;;;;;;;;;;;;;;5055829;28;19917;-80
2023/06/17 01:06:33;;;;;;;;;;;;;;;;;;5053716;28;19962;-80
2023/06/17 01:08:58;;;;;;;;;;;;;;;;;;5034434;28;19920;-80
2023/06/17 01:11:24;;;;;;;;;;;;;;;;;;5053951;28;19909;-80
2023/06/17 01:13:49;;;;;;;;;;;;;;;;;;5070925;28;20375;-80
2023/06/17 01:16:14;;;;;;;;;;;;;;;;;;5055145;28;19919;-80
2023/06/17 01:18:40;;;;;;;;;;;;;;;;;;5054636;28;19920;-80
2023/06/17 01:21:05;;;;;;;;;;;;;;;;;;5051253;28;19925;-80
2023/06/17 01:23:31;;;;;;;;;;;;;;;;;;5053758;28;19962;-80
2023/06/17 01:25:57;;;;;;;;;;;;;;;;;;5067646;28;19912;-81
2023/06/17 01:28:24;;;;;;;;;;;;;;;;;;5051517;28;19919;-80
2023/06/17 01:30:54;;;;;;;;;;;;;;;;;;5052472;28;19912;-81
2023/06/17 01:33:20;;;;;;;;;;;;;;;;;;5053184;28;19913;-81
2023/06/17 01:35:45;;;;;;;;;;;;;;;;;;5053661;28;19916;-80
2023/06/17 01:38:11;;;;;;;;;;;;;;;;;;5053623;28;19962;-80
2023/06/17 01:40:36;;;;;;;;;;;;;;;;;;5034227;28;19931;-80
2023/06/17 01:43:01;;;;;;;;;;;;;;;;;;5053421;28;19935;-80
2023/06/17 01:45:26;;;;;;;;;;;;;;;;;;5052222;28;19908;-81
2023/06/17 01:47:52;;;;;;;;;;;;;;;;;;5068778;28;19956;-81
2023/06/17 01:50:19;;;;;;;;;;;;;;;;;;5065578;28;19947;-81
2023/06/17 01:52:45;;;;;;;;;;;;;;;;;;5054160;28;19966;-81
2023/06/17 01:55:10;;;;;;;;;;;;;;;;;;5071179;28;19995;-81
2023/06/17 01:57:35;;;;;;;;;;;;;;;;;;5063987;28;19920;-81
2023/06/17 02:00:01;;;;;;;;;;;;;;;;;;5054011;28;19915;-81
2023/06/17 02:02:28;;;;;;;;;;;;;;;;;;5055668;28;19967;-80
2023/06/17 02:04:53;;;;;;;;;;;;;;;;;;5054800;28;20340;-81
2023/06/17 02:07:19;;;;;;;;;;;;;;;;;;5055549;28;19919;-81
2023/06/17 02:09:44;;;;;;;;;;;;;;;;;;5054439;28;19956;-81
2023/06/17 02:12:11;;;;;;;;;;;;;;;;;;5056988;28;19919;-81
2023/06/17 02:14:36;;;;;;;;;;;;;;;;;;5057233;28;20478;-80
2023/06/17 02:17:03;;;;;;;;;;;;;;;;;;5056880;28;19940;-81
2023/06/17 02:19:35;;;;;;;;;;;;;;;;;;5055287;28;20303;-80
2023/06/17 02:22:00;;;;;;;;;;;;;;;;;;5056069;28;20273;-80
2023/06/17 02:24:26;;;;;;;;;;;;;;;;;;5055034;28;19966;-80
2023/06/17 02:26:51;;;;;;;;;;;;;;;;;;5057157;28;19920;-81
2023/06/17 02:29:16;;;;;;;;;;;;;;;;;;5055145;28;19909;-80
2023/06/17 02:31:42;;;;;;;;;;;;;;;;;;5072513;28;19913;-80
2023/06/17 02:34:07;;;;;;;;;;;;;;;;;;5057166;28;19909;-80
2023/06/17 02:36:32;;;;;;;;;;;;;;;;;;5067093;28;19912;-80
2023/06/17 02:38:58;;;;;;;;;;;;;;;;;;5073728;28;19934;-80
2023/06/17 02:41:23;;;;;;;;;;;;;;;;;;5071826;28;19919;-80
2023/06/17 02:43:48;;;;;;;;;;;;;;;;;;5072700;28;19966;-80
2023/06/17 02:46:15;;;;;;;;;;;;;;;;;;5077467;28;19919;-80
2023/06/17 02:48:41;;;;;;;;;;;;;;;;;;5055444;28;19908;-81
2023/06/17 02:51:07;;;;;;;;;;;;;;;;;;5057109;28;19920;-81
2023/06/17 02:53:32;;;;;;;;;;;;;;;;;;5055046;28;19908;-81
2023/06/17 02:55:59;;;;;;;;;;;;;;;;;;5067933;28;20430;-81
2023/06/17 02:58:25;;;;;;;;;;;;;;;;;;5046330;28;19959;-81
2023/06/17 03:00:54;;;;;;;;;;;;;;;;;;5072277;28;19920;-81
2023/06/17 03:03:33;;;;;;;;;;;;;;;;;;5072295;28;19908;-80
2023/06/17 03:06:01;;;;;;;;;;;;;;;;;;5073036;28;19975;-81
2023/06/17 03:08:26;;;;;;;;;;;;;;;;;;5067291;28;19920;-81
2023/06/17 03:10:52;;;;;;;;;;;;;;;;;;5054777;28;19917;-81
2023/06/17 03:13:17;;;;;;;;;;;;;;;;;;5069179;28;19947;-81
2023/06/17 03:15:45;;;;;;;;;;;;;;;;;;5056928;28;19921;-81
2023/06/17 03:18:12;;;;;;;;;;;;;;;;;;5052915;28;19912;-81
2023/06/17 03:20:38;;;;;;;;;;;;;;;;;;5055131;28;19920;-81
2023/06/17 03:23:04;;;;;;;;;;;;;;;;;;5069695;28;19909;-81
2023/06/17 03:25:30;;;;;;;;;;;;;;;;;;5053826;28;19919;-81
2023/06/17 03:27:55;;;;;;;;;;;;;;;;;;5033755;28;19999;-81
2023/06/17 03:30:21;;;;;;;;;;;;;;;;;;5047169;28;19916;-81
2023/06/17 03:32:48;;;;;;;;;;;;;;;;;;5072024;28;19915;-81
2023/06/17 03:35:14;;;;;;;;;;;;;;;;;;5070549;28;19961;-81
2023/06/17 03:37:39;;;;;;;;;;;;;;;;;;5059848;28;20361;-81
2023/06/17 03:40:05;;;;;;;;;;;;;;;;;;5058938;28;20268;-81
2023/06/17 03:42:33;;;;;;;;;;;;;;;;;;5068274;28;19913;-81
2023/06/17 03:44:58;;;;;;;;;;;;;;;;;;5068527;28;20287;-82
2023/06/17 03:47:24;;;;;;;;;;;;;;;;;;5064197;28;19909;-81
2023/06/17 03:49:49;;;;;;;;;;;;;;;;;;5058729;28;19916;-81
2023/06/17 03:52:14;;;;;;;;;;;;;;;;;;5069569;28;20011;-81
2023/06/17 03:54:40;;;;;;;;;;;;;;;;;;5068529;28;19913;-81
2023/06/17 03:57:06;;;;;;;;;;;;;;;;;;5059512;28;19955;-81
2023/06/17 03:59:32;;;;;;;;;;;;;;;;;;5051477;28;20366;-81
2023/06/17 04:01:58;;;;;;;;;;;;;;;;;;5065421;28;19978;-81
2023/06/17 04:04:24;;;;;;;;;;;;;;;;;;5069668;28;20338;-81
2023/06/17 04:06:49;;;;;;;;;;;;;;;;;;5052082;28;19912;-81
2023/06/17 04:09:14;;;;;;;;;;;;;;;;;;5051565;28;19973;-81
2023/06/17 04:11:41;;;;;;;;;;;;;;;;;;5074053;28;20277;-81
2023/06/17 04:14:06;;;;;;;;;;;;;;;;;;5054914;28;20387;-81
2023/06/17 04:16:35;;;;;;;;;;;;;;;;;;5071450;28;19915;-81
2023/06/17 04:19:01;;;;;;;;;;;;;;;;;;5053507;28;19916;-80
2023/06/17 04:21:26;;;;;;;;;;;;;;;;;;5054671;28;19912;-80
2023/06/17 04:23:52;;;;;;;;;;;;;;;;;;5052635;28;19962;-81
2023/06/17 04:26:18;;;;;;;;;;;;;;;;;;5078151;28;19999;-80
2023/06/17 04:28:44;;;;;;;;;;;;;;;;;;5034089;28;19917;-80
2023/06/17 04:31:10;;;;;;;;;;;;;;;;;;5052753;28;20011;-80
2023/06/17 04:33:40;;;;;;;;;;;;;;;;;;5032739;28;19913;-80
2023/06/17 04:36:08;;;;;;;;;;;;;;;;;;5070587;28;20299;-80
2023/06/17 04:38:36;;;;;;;;;;;;;;;;;;5069423;28;20011;-80
2023/06/17 04:41:02;;;;;;;;;;;;;;;;;;5036113;28;19909;-80
2023/06/17 04:43:29;;;;;;;;;;;;;;;;;;5052149;28;19912;-80
2023/06/17 04:45:55;;;;;;;;;;;;;;;;;;5071775;28;19924;-80
2023/06/17 04:48:20;;;;;;;;;;;;;;;;;;5082714;28;19916;-80
2023/06/17 04:50:47;;;;;;;;;;;;;;;;;;5070311;28;20354;-81
2023/06/17 04:53:13;;;;;;;;;;;;;;;;;;5069934;28;19913;-82
2023/06/17 04:55:38;;;;;;;;;;;;;;;;;;5053911;28;19909;-79
2023/06/17 04:58:06;;;;;;;;;;;;;;;;;;5051554;28;19920;-80
2023/06/17 05:00:44;;;;;;;;;;;;;;;;;;5027359;28;19913;-80
2023/06/17 05:03:13;;;;;;;;;;;;;;;;;;5062150;28;19912;-80
2023/06/17 05:05:39;;;;;;;;;;;;;;;;;;5054131;28;19909;-79
2023/06/17 05:08:05;;;;;;;;;;;;;;;;;;5073120;28;19916;-80
2023/06/17 05:10:30;;;;;;;;;;;;;;;;;;5055770;28;19913;-80
2023/06/17 05:12:55;;;;;;;;;;;;;;;;;;5071412;28;19919;-80
2023/06/17 05:15:21;;;;;;;;;;;;;;;;;;5075081;28;19908;-80
2023/06/17 05:17:46;;;;;;;;;;;;;;;;;;5066250;28;19923;-80
2023/06/17 05:20:12;;;;;;;;;;;;;;;;;;5057531;28;19930;-80
2023/06/17 05:22:38;;;;;;;;;;;;;;;;;;5059144;28;19913;-80
2023/06/17 05:25:03;;;;;;;;;;;;;;;;;;5060772;28;19947;-79
2023/06/17 05:27:29;;;;;;;;;;;;;;;;;;5075565;28;19924;-80
2023/06/17 05:29:54;;;;;;;;;;;;;;;;;;5071847;28;20027;-80
2023/06/17 05:32:22;;;;;;;;;;;;;;;;;;5057436;28;20442;-80
2023/06/17 05:34:48;;;;;;;;;;;;;;;;;;5059197;28;19916;-82
2023/06/17 05:37:13;;;;;;;;;;;;;;;;;;5054105;28;19912;-80
2023/06/17 05:39:39;;;;;;;;;;;;;;;;;;5053339;28;19916;-81
2023/06/17 05:42:04;;;;;;;;;;;;;;;;;;5055366;28;19917;-81
2023/06/17 05:44:29;;;;;;;;;;;;;;;;;;5075832;28;19909;-80
2023/06/17 05:46:55;;;;;;;;;;;;;;;;;;5077243;28;19917;-80
2023/06/17 05:49:20;;;;;;;;;;;;;;;;;;5062638;28;19908;-80
2023/06/17 05:51:46;;;;;;;;;;;;;;;;;;5073899;28;20399;-80
2023/06/17 05:54:12;;;;;;;;;;;;;;;;;;5051570;28;19909;-80
2023/06/17 05:56:38;;;;;;;;;;;;;;;;;;5087685;28;19919;-80
2023/06/17 05:59:03;;;;;;;;;;;;;;;;;;5064280;28;19913;-80
2023/06/17 06:01:37;;;;;;;;;;;;;;;;;;5074583;28;19919;-81
2023/06/17 06:04:03;;;;;;;;;;;;;;;;;;5055435;28;20320;-81
2023/06/17 06:06:28;;;;;;;;;;;;;;;;;;5051161;28;19952;-82
2023/06/17 06:08:53;;;;;;;;;;;;;;;;;;5052336;28;19920;-82
2023/06/17 06:11:19;;;;;;;;;;;;;;;;;;5067651;28;19913;-82
2023/06/17 06:13:44;;;;;;;;;;;;;;;;;;5033848;28;19982;-81
2023/06/17 06:16:10;;;;;;;;;;;;;;;;;;5049018;28;20007;-82
2023/06/17 06:18:35;;;;;;;;;;;;;;;;;;5068966;28;20012;-82
2023/06/17 06:21:01;;;;;;;;;;;;;;;;;;5068579;28;19920;-82
2023/06/17 06:23:26;;;;;;;;;;;;;;;;;;5066315;28;19912;-81
2023/06/17 06:25:51;;;;;;;;;;;;;;;;;;5052919;28;19916;-80
2023/06/17 06:28:17;;;;;;;;;;;;;;;;;;5070825;28;19921;-81
2023/06/17 06:30:43;;;;;;;;;;;;;;;;;;5053874;28;19948;-81
2023/06/17 06:33:08;;;;;;;;;;;;;;;;;;5050752;28;20007;-82
2023/06/17 06:35:33;;;;;;;;;;;;;;;;;;5055511;28;20333;-83
2023/06/17 06:37:59;;;;;;;;;;;;;;;;;;5037495;28;19912;-82
2023/06/17 06:40:25;;;;;;;;;;;;;;;;;;5065890;28;20326;-83
2023/06/17 06:42:50;;;;;;;;;;;;;;;;;;5055381;28;19912;-82
2023/06/17 06:45:21;;;;;;;;;;;;;;;;;;5062480;28;20031;-81
2023/06/17 06:47:47;;;;;;;;;;;;;;;;;;5055111;28;19963;-81
2023/06/17 06:50:12;;;;;;;;;;;;;;;;;;5052549;28;20399;-80
2023/06/17 06:52:38;;;;;;;;;;;;;;;;;;5052451;28;19951;-83
2023/06/17 06:55:03;;;;;;;;;;;;;;;;;;5052966;28;20319;-81
2023/06/17 06:57:29;;;;;;;;;;;;;;;;;;5052444;28;19962;-81
2023/06/17 06:59:55;;;;;;;;;;;;;;;;;;5053852;28;19919;-81
2023/06/17 07:02:20;;;;;;;;;;;;;;;;;;5052811;28;19913;-81
2023/06/17 07:04:46;;;;;;;;;;;;;;;;;;5059861;28;20016;-82
2023/06/17 07:07:11;;;;;;;;;;;;;;;;;;5051635;28;19913;-82
2023/06/17 07:09:39;;;;;;;;;;;;;;;;;;5048605;28;19913;-82
2023/06/17 07:12:05;;;;;;;;;;;;;;;;;;5058769;28;19912;-84
2023/06/17 07:14:32;;;;;;;;;;;;;;;;;;5068931;28;20260;-82
2023/06/17 07:16:59;;;;;;;;;;;;;;;;;;5069006;28;19912;-81
2023/06/17 07:19:24;;;;;;;;;;;;;;;;;;5069049;28;19928;-82
2023/06/17 07:21:49;;;;;;;;;;;;;;;;;;5064926;28;19956;-82
2023/06/17 07:24:15;;;;;;;;;;;;;;;;;;5053034;28;20010;-82
2023/06/17 07:26:41;;;;;;;;;;;;;;;;;;5068272;28;19924;-82
2023/06/17 07:29:09;;;;;;;;;;;;;;;;;;5052447;28;19908;-82
2023/06/17 07:31:35;;;;;;;;;;;;;;;;;;5052014;28;19920;-83
2023/06/17 07:34:00;;;;;;;;;;;;;;;;;;5050353;28;20003;-83
2023/06/17 07:36:26;;;;;;;;;;;;;;;;;;5039010;28;20337;-83
2023/06/17 07:38:51;;;;;;;;;;;;;;;;;;5061845;28;19909;-82
2023/06/17 07:41:16;;;;;;;;;;;;;;;;;;5067374;28;19912;-81
2023/06/17 07:43:42;;;;;;;;;;;;;;;;;;5052673;28;20303;-79
2023/06/17 07:46:07;;;;;;;;;;;;;;;;;;5052370;28;19917;-80
2023/06/17 07:48:33;;;;;;;;;;;;;;;;;;5052029;28;19909;-81
2023/06/17 07:50:58;;;;;;;;;;;;;;;;;;5051856;28;19953;-83
2023/06/17 07:53:24;;;;;;;;;;;;;;;;;;5051471;28;19908;-83
2023/06/17 07:55:51;;;;;;;;;;;;;;;;;;5052376;28;19934;-82
2023/06/17 07:58:17;;;;;;;;;;;;;;;;;;5051900;28;19944;-80
2023/06/17 08:00:42;;;;;;;;;;;;;;;;;;5051500;28;19963;-83
2023/06/17 08:03:08;;;;;;;;;;;;;;;;;;5049962;28;20395;-84
2023/06/17 08:05:33;;;;;;;;;;;;;;;;;;5044444;28;19967;-82
2023/06/17 08:07:58;;;;;;;;;;;;;;;;;;5047111;28;20438;-82
2023/06/17 08:10:24;;;;;;;;;;;;;;;;;;5051769;28;20019;-82
2023/06/17 08:12:49;;;;;;;;;;;;;;;;;;5051178;28;20386;-82
2023/06/17 08:15:14;;;;;;;;;;;;;;;;;;5050416;28;19924;-82
2023/06/17 08:17:40;;;;;;;;;;;;;;;;;;5051519;28;20356;-81
2023/06/17 08:20:06;;;;;;;;;;;;;;;;;;5051789;28;19932;-81
2023/06/17 08:22:31;;;;;;;;;;;;;;;;;;5052001;28;19909;-81
2023/06/17 08:24:56;;;;;;;;;;;;;;;;;;5046557;28;19920;-83
2023/06/17 08:27:21;;;;;;;;;;;;;;;;;;5048364;28;20307;-83
2023/06/17 08:29:47;;;;;;;;;;;;;;;;;;5051162;28;19923;-83
2023/06/17 08:32:12;;;;;;;;;;;;;;;;;;5032856;28;20287;-83
2023/06/17 08:34:37;;;;;;;;;;;;;;;;;;5050410;28;19912;-83
2023/06/17 08:37:04;;;;;;;;;;;;;;;;;;5049988;28;20008;-82
2023/06/17 08:39:30;;;;;;;;;;;;;;;;;;5057242;28;20398;-82
2023/06/17 08:41:55;;;;;;;;;;;;;;;;;;5050884;28;19917;-84
2023/06/17 08:44:21;;;;;;;;;;;;;;;;;;5053476;28;19951;-83
2023/06/17 08:46:46;;;;;;;;;;;;;;;;;;5044824;28;19916;-83
2023/06/17 08:49:12;;;;;;;;;;;;;;;;;;5049222;28;19913;-82
2023/06/17 08:51:38;;;;;;;;;;;;;;;;;;5040121;28;19920;-82
2023/06/17 08:54:03;;;;;;;;;;;;;;;;;;5048278;28;19913;-83
2023/06/17 08:56:28;;;;;;;;;;;;;;;;;;5050544;28;20638;-83
2023/06/17 08:58:54;;;;;;;;;;;;;;;;;;5059013;28;19966;-84
2023/06/17 09:01:20;;;;;;;;;;;;;;;;;;5050719;28;20003;-84
2023/06/17 09:03:45;;;;;;;;;;;;;;;;;;5055106;28;19917;-83
2023/06/17 09:06:11;;;;;;;;;;;;;;;;;;5055584;28;19909;-80
2023/06/17 09:08:37;;;;;;;;;;;;;;;;;;5052006;28;19913;-83
2023/06/17 09:11:02;;;;;;;;;;;;;;;;;;5053538;28;20343;-83
2023/06/17 09:13:28;;;;;;;;;;;;;;;;;;5064663;28;20303;-83
2023/06/17 09:15:53;;;;;;;;;;;;;;;;;;5055231;28;19955;-84
2023/06/17 09:18:43;;;;;;;;;;;;;;;;;;5051682;28;19963;-84
2023/06/17 09:21:08;;;;;;;;;;;;;;;;;;5054395;28;19921;-84
2023/06/17 09:23:34;;;;;;;;;;;;;;;;;;5053224;28;19982;-82
2023/06/17 09:25:59;;;;;;;;;;;;;;;;;;5054281;28;19916;-83
2023/06/17 09:28:24;;;;;;;;;;;;;;;;;;5056127;28;20011;-83
2023/06/17 09:30:53;;;;;;;;;;;;;;;;;;5053607;28;19916;-84
2023/06/17 09:33:18;;;;;;;;;;;;;;;;;;5055077;28;20375;-84
2023/06/17 09:35:43;;;;;;;;;;;;;;;;;;5053810;28;19917;-83
2023/06/17 09:38:09;;;;;;;;;;;;;;;;;;5055082;28;19931;-84
2023/06/17 09:40:34;;;;;;;;;;;;;;;;;;5054806;28;19916;-84
2023/06/17 09:43:01;;;;;;;;;;;;;;;;;;5049944;28;20014;-84
2023/06/17 09:45:26;;;;;;;;;;;;;;;;;;5053300;28;20050;-83
2023/06/17 09:47:55;;;;;;;;;;;;;;;;;;5055953;28;19944;-85
2023/06/17 09:50:20;;;;;;;;;;;;;;;;;;5054639;28;19916;-83
2023/06/17 09:52:45;;;;;;;;;;;;;;;;;;5056004;28;19916;-85
2023/06/17 09:55:11;;;;;;;;;;;;;;;;;;5069745;28;19966;-83
2023/06/17 09:57:36;;;;;;;;;;;;;;;;;;5052872;28;19915;-84
2023/06/17 10:00:09;;;;;;;;;;;;;;;;;;5053578;28;20273;-84
2023/06/17 10:02:35;;;;;;;;;;;;;;;;;;5052730;28;19917;-83
2023/06/17 10:05:00;;;;;;;;;;;;;;;;;;5054311;28;20780;-84
2023/06/17 10:07:26;;;;;;;;;;;;;;;;;;5060934;28;19912;-83
2023/06/17 10:09:51;;;;;;;;;;;;;;;;;;5053598;28;19955;-84
2023/06/17 10:12:16;;;;;;;;;;;;;;;;;;5051759;28;20402;-83
2023/06/17 10:14:41;;;;;;;;;;;;;;;;;;5051610;28;20367;-83
2023/06/17 10:17:11;;;;;;;;;;;;;;;;;;5052130;28;19920;-83
2023/06/17 10:19:36;;;;;;;;;;;;;;;;;;5051500;28;20069;-85
2023/06/17 10:22:01;;;;;;;;;;;;;;;;;;5053597;28;20418;-84
2023/06/17 10:24:28;;;;;;;;;;;;;;;;;;5052008;28;19932;-84
2023/06/17 10:26:53;;;;;;;;;;;;;;;;;;5053825;28;20337;-84
2023/06/17 10:29:20;;;;;;;;;;;;;;;;;;5053313;28;19958;-84
2023/06/17 10:31:45;;;;;;;;;;;;;;;;;;5053857;28;19932;-85
2023/06/17 10:34:10;;;;;;;;;;;;;;;;;;5054023;28;19908;-85
2023/06/17 10:36:36;;;;;;;;;;;;;;;;;;5035995;28;19913;-85
2023/06/17 10:39:02;;;;;;;;;;;;;;;;;;5053961;28;19916;-83
2023/06/17 10:41:27;;;;;;;;;;;;;;;;;;5069142;28;20363;-84
2023/06/17 10:43:52;;;;;;;;;;;;;;;;;;5053864;28;19935;-85
2023/06/17 10:46:18;;;;;;;;;;;;;;;;;;5053816;28;19973;-84
2023/06/17 10:48:43;;;;;;;;;;;;;;;;;;5054897;28;19930;-84
2023/06/17 10:51:08;;;;;;;;;;;;;;;;;;5054813;28;20356;-83
2023/06/17 10:53:36;;;;;;;;;;;;;;;;;;5048367;28;19959;-84
2023/06/17 10:56:01;;;;;;;;;;;;;;;;;;5061093;28;19913;-85
2023/06/17 10:58:26;;;;;;;;;;;;;;;;;;5052043;28;19908;-86
2023/06/17 11:00:52;;;;;;;;;;;;;;;;;;5053075;28;19912;-84
2023/06/17 11:03:17;;;;;;;;;;;;;;;;;;5052579;28;19908;-84
2023/06/17 11:05:42;;;;;;;;;;;;;;;;;;5059913;28;19916;-84
2023/06/17 11:08:08;;;;;;;;;;;;;;;;;;5052666;28;20352;-84
2023/06/17 11:10:33;;;;;;;;;;;;;;;;;;5053321;28;19917;-84
2023/06/17 11:12:58;;;;;;;;;;;;;;;;;;5053323;28;19908;-84
2023/06/17 11:15:24;;;;;;;;;;;;;;;;;;5053461;28;20271;-83
2023/06/17 11:17:49;;;;;;;;;;;;;;;;;;5052221;28;19916;-83
2023/06/17 11:20:14;;;;;;;;;;;;;;;;;;5053178;28;19936;-84
2023/06/17 11:22:40;;;;;;;;;;;;;;;;;;5050910;28;20004;-85
2023/06/17 11:25:06;;;;;;;;;;;;;;;;;;5051964;28;19944;-84
2023/06/17 11:27:31;;;;;;;;;;;;;;;;;;5052135;28;19951;-84
2023/06/17 11:29:56;;;;;;;;;;;;;;;;;;5052363;28;19962;-84
2023/06/17 11:32:22;;;;;;;;;;;;;;;;;;5052079;28;19909;-83
2023/06/17 11:34:49;;;;;;;;;;;;;;;;;;5052514;28;19919;-84
2023/06/17 11:37:16;;;;;;;;;;;;;;;;;;5051253;28;19916;-83
2023/06/17 11:39:41;;;;;;;;;;;;;;;;;;5052397;28;19985;-84
2023/06/17 11:42:07;;;;;;;;;;;;;;;;;;5052016;28;19951;-84
2023/06/17 11:44:32;;;;;;;;;;;;;;;;;;5052468;28;19912;-84
2023/06/17 11:46:57;;;;;;;;;;;;;;;;;;5051892;28;20343;-83
2023/06/17 11:49:23;;;;;;;;;;;;;;;;;;5052534;28;19913;-84
2023/06/17 11:51:49;;;;;;;;;;;;;;;;;;5051374;28;19913;-84
2023/06/17 11:54:14;;;;;;;;;;;;;;;;;;5054062;28;19917;-84
2023/06/17 11:56:39;;;;;;;;;;;;;;;;;;5052450;28;19931;-84
2023/06/17 11:59:05;;;;;;;;;;;;;;;;;;5054407;28;19993;-84
2023/06/17 12:01:30;;;;;;;;;;;;;;;;;;5055595;28;19909;-83
2023/06/17 12:03:55;;;;;;;;;;;;;;;;;;5051699;28;19939;-83
2023/06/17 12:06:21;;;;;;;;;;;;;;;;;;5051743;28;19955;-84
2023/06/17 12:08:46;;;;;;;;;;;;;;;;;;5051883;28;19916;-84
2023/06/17 12:11:11;;;;;;;;;;;;;;;;;;5058688;28;20371;-84
2023/06/17 12:13:37;;;;;;;;;;;;;;;;;;5052694;28;19999;-84
2023/06/17 12:16:02;;;;;;;;;;;;;;;;;;5051648;28;19963;-84
2023/06/17 12:18:28;;;;;;;;;;;;;;;;;;5051791;28;20414;-83
2023/06/17 12:20:53;;;;;;;;;;;;;;;;;;5051606;28;20027;-83
2023/06/17 12:23:19;;;;;;;;;;;;;;;;;;5052086;28;19912;-84
2023/06/17 12:25:46;;;;;;;;;;;;;;;;;;5048262;28;19964;-83
2023/06/17 12:28:13;;;;;;;;;;;;;;;;;;5058811;28;19913;-83
2023/06/17 12:30:39;;;;;;;;;;;;;;;;;;5047859;28;19919;-82
2023/06/17 12:33:04;;;;;;;;;;;;;;;;;;5051113;28;19920;-84
2023/06/17 12:35:30;;;;;;;;;;;;;;;;;;5052181;28;20671;-84
2023/06/17 12:37:55;;;;;;;;;;;;;;;;;;5051052;28;19912;-84
2023/06/17 12:40:21;;;;;;;;;;;;;;;;;;5051790;28;19909;-83
2023/06/17 12:42:46;;;;;;;;;;;;;;;;;;5051705;28;19913;-84
2023/06/17 12:45:12;;;;;;;;;;;;;;;;;;5050921;28;19913;-83
2023/06/17 12:47:38;;;;;;;;;;;;;;;;;;5050873;28;19913;-84
2023/06/17 12:50:03;;;;;;;;;;;;;;;;;;5051120;28;19919;-83
2023/06/17 12:52:29;;;;;;;;;;;;;;;;;;5051802;28;20003;-84
2023/06/17 12:54:54;;;;;;;;;;;;;;;;;;5047678;28;19915;-84
2023/06/17 12:57:20;;;;;;;;;;;;;;;;;;5049581;28;19913;-83
2023/06/17 12:59:45;;;;;;;;;;;;;;;;;;5049322;28;20407;-84
2023/06/17 13:02:10;;;;;;;;;;;;;;;;;;5051221;28;19913;-83
2023/06/17 13:04:35;;;;;;;;;;;;;;;;;;5050605;28;19908;-84
2023/06/17 13:07:01;;;;;;;;;;;;;;;;;;5051536;28;19938;-83
2023/06/17 13:09:26;;;;;;;;;;;;;;;;;;5050997;28;19909;-83
2023/06/17 13:11:52;;;;;;;;;;;;;;;;;;5051082;28;19935;-83
2023/06/17 13:14:18;;;;;;;;;;;;;;;;;;5050783;28;19912;-83
2023/06/17 13:16:43;;;;;;;;;;;;;;;;;;5051250;28;20007;-84
2023/06/17 13:19:08;;;;;;;;;;;;;;;;;;5051086;28;20044;-84
2023/06/17 13:21:34;;;;;;;;;;;;;;;;;;5066279;28;19917;-84
2023/06/17 13:23:59;;;;;;;;;;;;;;;;;;5050040;28;19932;-83
2023/06/17 13:26:24;;;;;;;;;;;;;;;;;;5052569;28;19916;-83
2023/06/17 13:28:50;;;;;;;;;;;;;;;;;;5050034;28;19916;-82
2023/06/17 13:31:15;;;;;;;;;;;;;;;;;;5051345;28;19921;-83
2023/06/17 13:33:41;;;;;;;;;;;;;;;;;;5050679;28;20344;-83
2023/06/17 13:36:06;;;;;;;;;;;;;;;;;;5056001;28;20022;-83
2023/06/17 13:38:31;;;;;;;;;;;;;;;;;;5058003;28;19962;-83
2023/06/17 13:40:57;;;;;;;;;;;;;;;;;;5051283;28;19913;-83
2023/06/17 13:43:22;;;;;;;;;;;;;;;;;;5050346;28;19915;-83
2023/06/17 13:45:47;;;;;;;;;;;;;;;;;;5051248;28;19919;-83
2023/06/17 13:48:12;;;;;;;;;;;;;;;;;;5057588;28;19989;-83
2023/06/17 13:50:38;;;;;;;;;;;;;;;;;;5054164;28;19917;-83
2023/06/17 13:53:03;;;;;;;;;;;;;;;;;;5054220;28;20122;-84
2023/06/17 13:55:31;;;;;;;;;;;;;;;;;;5054289;28;19913;-83
2023/06/17 13:57:56;;;;;;;;;;;;;;;;;;5054192;28;19909;-83
2023/06/17 14:00:21;;;;;;;;;;;;;;;;;;5054062;28;20294;-83
2023/06/17 14:02:47;;;;;;;;;;;;;;;;;;5054196;28;20338;-83
2023/06/17 14:05:12;;;;;;;;;;;;;;;;;;5054711;28;19938;-83
2023/06/17 14:07:37;;;;;;;;;;;;;;;;;;5053981;28;19944;-84
2023/06/17 14:10:02;;;;;;;;;;;;;;;;;;5054770;28;19916;-83
2023/06/17 14:12:28;;;;;;;;;;;;;;;;;;5054504;28;19909;-82
2023/06/17 14:14:53;;;;;;;;;;;;;;;;;;5052373;28;19913;-82
2023/06/17 14:17:19;;;;;;;;;;;;;;;;;;5054931;28;19908;-84
2023/06/17 14:19:44;;;;;;;;;;;;;;;;;;5053188;28;19928;-81
2023/06/17 14:22:09;;;;;;;;;;;;;;;;;;5053526;28;19956;-82
2023/06/17 14:24:35;;;;;;;;;;;;;;;;;;5053767;28;19954;-82
2023/06/17 14:27:00;;;;;;;;;;;;;;;;;;5063861;28;19916;-82
2023/06/17 14:29:26;;;;;;;;;;;;;;;;;;5053362;28;20291;-83
2023/06/17 14:31:51;;;;;;;;;;;;;;;;;;5052467;28;19974;-83
2023/06/17 14:34:16;;;;;;;;;;;;;;;;;;5053462;28;19912;-83
2023/06/17 14:36:42;;;;;;;;;;;;;;;;;;5053498;28;19908;-83
2023/06/17 14:39:07;;;;;;;;;;;;;;;;;;5052631;28;19913;-83
2023/06/17 14:41:32;;;;;;;;;;;;;;;;;;5053394;28;20052;-83
2023/06/17 14:43:57;;;;;;;;;;;;;;;;;;5053740;28;19913;-82
2023/06/17 14:46:23;;;;;;;;;;;;;;;;;;5053590;28;19913;-83
2023/06/17 14:48:49;;;;;;;;;;;;;;;;;;5053715;28;20469;-83
2023/06/17 14:51:14;;;;;;;;;;;;;;;;;;5053521;28;20352;-82
2023/06/17 14:53:43;;;;;;;;;;;;;;;;;;5052814;28;19913;-83
2023/06/17 14:56:08;;;;;;;;;;;;;;;;;;5052476;28;20378;-83
2023/06/17 14:58:33;;;;;;;;;;;;;;;;;;5052753;28;19912;-83
2023/06/17 15:00:59;;;;;;;;;;;;;;;;;;5052264;28;19915;-83
2023/06/17 15:03:24;;;;;;;;;;;;;;;;;;5052795;28;19913;-83
2023/06/17 15:05:50;;;;;;;;;;;;;;;;;;5053171;28;19997;-83
2023/06/17 15:08:15;;;;;;;;;;;;;;;;;;5053264;28;19916;-83
2023/06/17 15:10:40;;;;;;;;;;;;;;;;;;5053593;28;19920;-83
2023/06/17 15:13:06;;;;;;;;;;;;;;;;;;5052581;28;19958;-83
2023/06/17 15:15:31;;;;;;;;;;;;;;;;;;5052193;28;20711;-82
2023/06/17 15:17:58;;;;;;;;;;;;;;;;;;5052019;28;20268;-83
2023/06/17 15:20:23;;;;;;;;;;;;;;;;;;5052568;28;20403;-83
2023/06/17 15:22:49;;;;;;;;;;;;;;;;;;5052384;28;20027;-83
2023/06/17 15:25:14;;;;;;;;;;;;;;;;;;5058677;28;20018;-83
2023/06/17 15:27:39;;;;;;;;;;;;;;;;;;5046664;28;19920;-83
2023/06/17 15:30:05;;;;;;;;;;;;;;;;;;5043601;28;19924;-83
2023/06/17 15:32:30;;;;;;;;;;;;;;;;;;5052029;28;20339;-83
2023/06/17 15:34:55;;;;;;;;;;;;;;;;;;5052502;28;20402;-83
2023/06/17 15:37:21;;;;;;;;;;;;;;;;;;5050953;28;20011;-83
2023/06/17 15:39:46;;;;;;;;;;;;;;;;;;5051916;28;19908;-83
2023/06/17 15:42:11;;;;;;;;;;;;;;;;;;5052120;28;19990;-83
2023/06/17 15:44:37;;;;;;;;;;;;;;;;;;5050941;28;19989;-83
2023/06/17 15:47:02;;;;;;;;;;;;;;;;;;5051716;28;19936;-83
2023/06/17 15:49:27;;;;;;;;;;;;;;;;;;5052072;28;19951;-83
2023/06/17 15:51:53;;;;;;;;;;;;;;;;;;5050599;28;19920;-83
2023/06/17 15:54:19;;;;;;;;;;;;;;;;;;5051921;28;19908;-83
2023/06/17 15:56:47;;;;;;;;;;;;;;;;;;5052014;28;20281;-82
2023/06/17 15:59:12;;;;;;;;;;;;;;;;;;5059351;28;20719;-82
2023/06/17 16:01:38;;;;;;;;;;;;;;;;;;5060136;28;19954;-82
2023/06/17 16:04:09;;;;;;;;;;;;;;;;;;5051744;28;19913;-82
2023/06/17 16:06:49;;;;;;;;;;;;;;;;;;5048125;28;19916;-82
2023/06/17 16:09:15;;;;;;;;;;;;;;;;;;5054228;28;20406;-84
2023/06/17 16:11:40;;;;;;;;;;;;;;;;;;5050768;28;19913;-83
2023/06/17 16:14:05;;;;;;;;;;;;;;;;;;5051568;28;19921;-81
2023/06/17 16:16:31;;;;;;;;;;;;;;;;;;5051722;28;19908;-82
2023/06/17 16:18:56;;;;;;;;;;;;;;;;;;5050293;28;20016;-80
2023/06/17 16:21:21;;;;;;;;;;;;;;;;;;5051792;28;19951;-81
2023/06/17 16:23:47;;;;;;;;;;;;;;;;;;5052173;28;19912;-82
2023/06/17 16:26:12;;;;;;;;;;;;;;;;;;5052651;28;20398;-82
2023/06/17 16:28:39;;;;;;;;;;;;;;;;;;5052606;28;19916;-82
2023/06/17 16:31:04;;;;;;;;;;;;;;;;;;5051822;28;19920;-82
2023/06/17 16:33:30;;;;;;;;;;;;;;;;;;5050415;28;19912;-82
2023/06/17 16:35:55;;;;;;;;;;;;;;;;;;5050775;28;19909;-82